アシガバート の空港の天気 - METARとTAF

アシガバート空港 ( UTAA / ASB ) - トルクメニスタン アシガバート
飛行場実況気象(Metar)
観測時間05/26 03:00 TMT (05/25 22:00 UTC)
風向・風速南西 1m/s
視程10km以上
天気現象
なし
気温21℃
湿度60%
気圧1012hPa
METARUTAA 252200Z 22002KT 9999 NSC 21/13 Q1012 R88/70D NOSIG
過去の天気等 Google飛行場航空写真 Wunderground天気予報

過去48時間のMETAR

飛行場予報(TAF)
発表時間: 5/25 21:45 TMT (5/25 16:45 UTC)
予報対象時間: 25日23時 TMT ~ 26日23時 TMT
風向・風速西南西 8m/s
視程6000m
全天の4割程度の雲 雲底高度 1520m
26日7時 TMT ~ 26日9時 TMT に徐々に
風向・風速西北西 7m/s 瞬間風速 12m/s
TAF UTAA 251645Z 2518/2618 24016KT 6000 SCT050
BECMG 2602/2604 30014G24KT